createdAt,value
2022-11-22T00:01:34.918Z,11.21
2022-11-22T00:04:01.683Z,10.87
2022-11-22T00:06:28.314Z,10.82
2022-11-22T00:08:55.085Z,10.87
2022-11-22T00:11:21.955Z,10.77
2022-11-22T00:13:48.974Z,11.07
2022-11-22T00:16:22.058Z,11.31
2022-11-22T00:18:55.282Z,11.37
2022-11-22T00:21:22.010Z,11.08
2022-11-22T00:23:48.603Z,10.98
2022-11-22T00:26:15.278Z,11.06
2022-11-22T00:28:43.157Z,10.91
2022-11-22T00:31:09.982Z,11.15
2022-11-22T00:33:36.716Z,11.16
2022-11-22T00:36:06.756Z,11.32
2022-11-22T00:38:33.401Z,11.43
2022-11-22T00:41:00.010Z,11.43
2022-11-22T00:43:29.558Z,11.38
2022-11-22T00:45:56.269Z,11.30
2022-11-22T00:48:24.657Z,11.14
2022-11-22T00:51:00.415Z,10.96
2022-11-22T00:53:41.000Z,11.18
2022-11-22T00:56:08.763Z,11.09
2022-11-22T00:58:35.563Z,10.23
2022-11-22T01:01:02.495Z,10.67
2022-11-22T01:03:29.136Z,10.94
2022-11-22T01:05:56.865Z,10.84
2022-11-22T01:08:23.641Z,10.66
2022-11-22T01:11:00.717Z,10.53
2022-11-22T01:13:29.417Z,10.64
2022-11-22T01:16:05.460Z,10.80
2022-11-22T01:18:32.953Z,10.80
2022-11-22T01:21:00.204Z,11.05
2022-11-22T01:23:27.327Z,10.79
2022-11-22T01:25:54.222Z,10.90
2022-11-22T01:28:20.922Z,10.62
2022-11-22T01:30:51.111Z,10.74
2022-11-22T01:33:18.366Z,10.79
2022-11-22T01:35:45.298Z,10.56
2022-11-22T01:38:13.711Z,10.48
2022-11-22T01:40:40.336Z,10.65
2022-11-22T01:43:17.611Z,10.77
2022-11-22T01:45:48.842Z,11.06
2022-11-22T01:48:42.205Z,11.33
2022-11-22T01:51:25.027Z,11.56
2022-11-22T01:53:54.775Z,11.63
2022-11-22T01:56:22.889Z,11.59
2022-11-22T01:58:57.165Z,11.71
2022-11-22T02:01:28.216Z,11.92
2022-11-22T02:03:57.258Z,11.40
2022-11-22T02:06:28.802Z,11.70
2022-11-22T02:09:08.854Z,11.50
2022-11-22T02:11:38.562Z,11.36
2022-11-22T02:14:07.059Z,11.41
2022-11-22T02:16:36.216Z,11.55
2022-11-22T02:19:06.676Z,11.69
2022-11-22T02:21:33.462Z,11.26
2022-11-22T02:24:14.803Z,11.53
2022-11-22T02:26:45.264Z,11.48
2022-11-22T02:29:13.083Z,11.64
2022-11-22T02:31:46.092Z,11.84
2022-11-22T02:34:16.489Z,12.22
2022-11-22T02:36:50.401Z,12.75
2022-11-22T02:39:20.519Z,12.52
2022-11-22T02:41:52.462Z,12.07
2022-11-22T02:44:20.529Z,11.95
2022-11-22T02:46:50.318Z,11.82
2022-11-22T02:49:22.553Z,11.58
2022-11-22T02:51:49.746Z,11.38
2022-11-22T02:54:16.728Z,11.21
2022-11-22T02:56:43.404Z,10.80
2022-11-22T02:59:10.309Z,11.16
2022-11-22T03:01:37.531Z,10.93
2022-11-22T03:04:09.193Z,10.79
2022-11-22T03:06:36.130Z,10.76
2022-11-22T03:09:03.021Z,10.89
2022-11-22T03:11:29.849Z,10.76
2022-11-22T03:13:56.450Z,11.06
2022-11-22T03:16:23.230Z,11.48
2022-11-22T03:18:50.090Z,11.23
2022-11-22T03:21:16.798Z,10.96
2022-11-22T03:23:43.558Z,11.32
2022-11-22T03:26:11.928Z,11.13
2022-11-22T03:28:39.082Z,11.02
2022-11-22T03:31:07.716Z,11.53
2022-11-22T03:33:37.439Z,11.62
2022-11-22T03:36:04.445Z,11.72
2022-11-22T03:38:31.381Z,11.43
2022-11-22T03:40:59.878Z,11.05
2022-11-22T03:43:31.307Z,11.03
2022-11-22T03:45:58.124Z,10.86
2022-11-22T03:48:27.539Z,10.67
2022-11-22T03:50:54.489Z,10.85
2022-11-22T03:53:21.115Z,10.73
2022-11-22T03:55:47.827Z,10.55
2022-11-22T03:58:14.394Z,10.65
2022-11-22T04:00:41.036Z,10.72
2022-11-22T04:03:10.744Z,10.60
2022-11-22T04:05:37.385Z,10.61
2022-11-22T04:08:04.082Z,10.63
2022-11-22T04:10:30.760Z,10.81
2022-11-22T04:12:58.848Z,10.80
2022-11-22T04:15:27.873Z,11.17
2022-11-22T04:17:54.745Z,11.42
2022-11-22T04:20:46.018Z,11.76
2022-11-22T04:23:18.069Z,11.95
2022-11-22T04:25:48.978Z,11.96
2022-11-22T04:28:18.767Z,11.74
2022-11-22T04:31:04.834Z,11.75
2022-11-22T04:33:31.463Z,11.98
2022-11-22T04:35:58.365Z,11.81
2022-11-22T04:38:25.274Z,12.04
2022-11-22T04:40:52.064Z,11.82
2022-11-22T04:43:45.026Z,11.89
2022-11-22T04:46:13.049Z,12.06
2022-11-22T04:48:39.989Z,11.81
2022-11-22T04:51:30.161Z,12.19
2022-11-22T04:53:56.791Z,12.09
2022-11-22T04:56:23.537Z,11.40
2022-11-22T04:58:53.263Z,12.13
2022-11-22T05:01:22.924Z,12.31
2022-11-22T05:03:49.696Z,12.52
2022-11-22T05:06:16.339Z,12.45
2022-11-22T05:08:47.748Z,12.69
2022-11-22T05:11:16.687Z,12.49
2022-11-22T05:13:48.087Z,12.66
2022-11-22T05:16:16.630Z,12.28
2022-11-22T05:18:43.381Z,12.59
2022-11-22T05:21:19.347Z,12.68
2022-11-22T05:23:59.116Z,12.68
2022-11-22T05:26:33.674Z,12.99
2022-11-22T05:29:09.704Z,12.21
2022-11-22T05:31:38.099Z,12.68
2022-11-22T05:34:05.376Z,12.41
2022-11-22T05:36:34.493Z,12.76
2022-11-22T05:39:02.243Z,12.44
2022-11-22T05:41:29.326Z,12.90
2022-11-22T05:43:56.886Z,12.36
2022-11-22T05:46:29.336Z,12.66
2022-11-22T05:48:57.836Z,12.53
2022-11-22T05:51:33.677Z,12.17
2022-11-22T05:54:01.598Z,12.53
2022-11-22T05:56:31.344Z,12.66
2022-11-22T05:58:58.016Z,12.87
2022-11-22T06:01:24.974Z,12.61
2022-11-22T06:03:52.040Z,12.75
2022-11-22T06:06:19.222Z,12.77
2022-11-22T06:08:48.060Z,12.52
2022-11-22T06:11:18.237Z,12.35
2022-11-22T06:13:46.684Z,11.84
2022-11-22T06:16:14.223Z,12.01
2022-11-22T06:18:40.904Z,11.90
2022-11-22T06:21:11.604Z,11.93
2022-11-22T06:38:27.425Z,11.77
2022-11-22T06:41:01.065Z,11.44
2022-11-22T06:43:30.412Z,11.58
2022-11-22T06:45:58.396Z,11.45
2022-11-22T06:48:32.597Z,11.07
2022-11-22T06:51:03.562Z,11.36
2022-11-22T06:53:46.718Z,11.19
2022-11-22T06:56:20.628Z,11.51
2022-11-22T06:58:48.383Z,10.78
2022-11-22T07:01:22.263Z,11.24
2022-11-22T07:03:49.973Z,11.31
2022-11-22T07:06:22.688Z,11.08
2022-11-22T07:08:50.396Z,11.14
2022-11-22T07:11:20.422Z,10.73
2022-11-22T07:13:50.719Z,10.59
2022-11-22T07:16:20.252Z,10.17
2022-11-22T07:18:47.970Z,9.76
2022-11-22T07:21:19.837Z,10.34
2022-11-22T07:23:49.141Z,10.43
2022-11-22T07:26:18.046Z,10.25
2022-11-22T07:28:45.822Z,9.81
2022-11-22T07:31:14.090Z,10.16
2022-11-22T07:33:44.796Z,10.19
2022-11-22T07:36:18.295Z,10.15
2022-11-22T07:38:45.608Z,9.92
2022-11-22T07:41:13.361Z,10.13
2022-11-22T07:43:43.022Z,9.60
2022-11-22T07:46:36.127Z,10.00
2022-11-22T07:49:03.532Z,10.12
2022-11-22T07:51:30.629Z,9.87
2022-11-22T07:53:57.719Z,9.95
2022-11-22T07:56:33.679Z,9.84
2022-11-22T07:59:00.360Z,9.81
2022-11-22T08:01:27.360Z,10.01
2022-11-22T08:03:54.125Z,9.99
2022-11-22T08:06:20.958Z,9.98
2022-11-22T08:08:47.508Z,9.47
2022-11-22T08:11:14.340Z,9.80
2022-11-22T08:13:48.962Z,9.08
2022-11-22T08:16:18.029Z,10.08
2022-11-22T08:18:56.945Z,10.08
2022-11-22T08:21:23.728Z,10.06
2022-11-22T08:23:57.709Z,9.50
2022-11-22T08:26:24.988Z,9.86
2022-11-22T08:28:55.338Z,9.62
2022-11-22T08:31:24.459Z,10.04
2022-11-22T08:33:54.182Z,9.56
2022-11-22T08:36:21.801Z,10.22
2022-11-22T08:38:48.678Z,10.23
2022-11-22T08:41:15.380Z,10.15
2022-11-22T08:43:42.716Z,9.99
2022-11-22T08:46:09.403Z,9.83
2022-11-22T08:48:38.413Z,9.90
2022-11-22T08:51:08.023Z,10.19
2022-11-22T08:53:36.793Z,9.97
2022-11-22T08:56:04.748Z,9.99
2022-11-22T08:58:33.289Z,9.98
2022-11-22T09:01:10.148Z,10.02
2022-11-22T09:03:40.767Z,9.85
2022-11-22T09:11:52.963Z,9.97
2022-11-22T09:14:20.256Z,9.84
2022-11-22T09:16:47.159Z,10.04
2022-11-22T09:19:16.440Z,10.10
2022-11-22T09:21:44.264Z,9.79
2022-11-22T09:24:11.248Z,10.36
2022-11-22T09:26:41.471Z,10.50
2022-11-22T09:29:08.662Z,10.40
2022-11-22T09:31:35.440Z,10.94
2022-11-22T09:34:06.077Z,11.08
2022-11-22T09:36:32.766Z,10.65
2022-11-22T09:39:02.863Z,10.17
2022-11-22T09:41:44.852Z,9.72
2022-11-22T09:44:42.711Z,10.11
2022-11-22T09:47:46.405Z,9.96
2022-11-22T09:50:30.888Z,9.95
2022-11-22T09:53:06.588Z,10.10
2022-11-22T09:55:49.585Z,10.06
2022-11-22T09:58:41.137Z,10.10
2022-11-22T10:01:20.088Z,10.09
2022-11-22T10:03:46.787Z,9.98
2022-11-22T10:06:32.872Z,9.85
2022-11-22T10:09:26.460Z,9.79
2022-11-22T10:12:22.586Z,9.80
2022-11-22T10:15:05.156Z,9.71
2022-11-22T10:17:59.950Z,9.87
2022-11-22T10:20:29.663Z,9.84
2022-11-22T10:23:02.552Z,9.87
2022-11-22T10:25:40.049Z,9.84
2022-11-22T10:28:33.745Z,9.88
2022-11-22T10:31:14.305Z,9.68
2022-11-22T10:34:03.326Z,9.98
2022-11-22T10:37:00.294Z,10.03
2022-11-22T10:39:55.391Z,9.72
2022-11-22T10:43:09.067Z,9.89
2022-11-22T10:46:12.383Z,9.70
2022-11-22T10:48:47.418Z,9.83
2022-11-22T10:51:49.672Z,9.70
2022-11-22T10:54:32.440Z,9.92
2022-11-22T10:57:20.328Z,9.97
2022-11-22T11:00:06.467Z,9.66
2022-11-22T11:02:58.223Z,9.80
2022-11-22T11:06:00.954Z,9.35
2022-11-22T11:09:12.744Z,9.81
2022-11-22T11:11:30.674Z,9.71
2022-11-22T11:14:04.435Z,9.73
2022-11-22T11:16:35.663Z,9.53
2022-11-22T11:19:05.238Z,9.71
2022-11-22T11:21:32.074Z,9.67
2022-11-22T11:24:21.632Z,9.66
2022-11-22T11:26:56.963Z,9.67
2022-11-22T11:29:57.053Z,9.65
2022-11-22T11:32:23.619Z,9.41
2022-11-22T11:35:04.803Z,9.52
2022-11-22T11:37:39.494Z,8.92
2022-11-22T11:40:27.129Z,9.41
2022-11-22T11:43:19.681Z,9.29
2022-11-22T11:45:46.873Z,9.34
2022-11-22T11:48:28.404Z,9.37
2022-11-22T11:51:13.538Z,9.30
2022-11-22T11:53:42.511Z,9.02
2022-11-22T11:56:30.475Z,9.26
2022-11-22T11:59:07.596Z,9.29
2022-11-22T12:01:39.475Z,9.20
2022-11-22T12:04:07.573Z,9.13
2022-11-22T12:06:34.659Z,9.36
2022-11-22T12:09:09.088Z,9.18
2022-11-22T12:11:46.855Z,9.16
2022-11-22T12:14:20.500Z,9.30
2022-11-22T12:16:51.223Z,8.68
2022-11-22T12:19:39.709Z,9.10
2022-11-22T12:22:48.122Z,9.21
2022-11-22T12:25:36.699Z,9.20
2022-11-22T12:28:13.121Z,8.73
2022-11-22T12:30:43.153Z,9.19
2022-11-22T12:33:21.912Z,8.92
2022-11-22T12:35:50.244Z,8.82
2022-11-22T12:38:44.589Z,8.96
2022-11-22T12:41:21.466Z,9.16
2022-11-22T12:43:57.083Z,9.11
2022-11-22T12:46:29.746Z,9.02
2022-11-22T12:49:03.876Z,9.11
2022-11-22T12:51:56.757Z,8.95
2022-11-22T12:54:42.237Z,9.02
2022-11-22T12:57:25.512Z,8.88
2022-11-22T13:00:02.797Z,9.11
2022-11-22T13:02:39.766Z,8.86
2022-11-22T13:05:15.799Z,9.10
2022-11-22T13:07:53.843Z,9.05
2022-11-22T13:10:32.069Z,9.02
2022-11-22T13:13:02.110Z,8.89
2022-11-22T13:15:32.070Z,8.93
2022-11-22T13:17:59.095Z,8.94
2022-11-22T13:20:42.939Z,9.02
2022-11-22T13:23:36.329Z,9.10
2022-11-22T13:26:21.580Z,8.92
2022-11-22T13:28:50.187Z,9.03
2022-11-22T13:31:19.614Z,8.82
2022-11-22T13:33:56.679Z,7.76
2022-11-22T13:36:36.516Z,8.76
2022-11-22T13:39:15.958Z,8.82
2022-11-22T13:41:57.779Z,8.91
2022-11-22T13:44:36.264Z,8.87
2022-11-22T13:47:04.970Z,8.86
2022-11-22T13:49:36.821Z,8.54
2022-11-22T13:52:29.732Z,8.87
2022-11-22T13:54:56.904Z,8.87
2022-11-22T13:57:35.130Z,8.83
2022-11-22T14:00:14.211Z,8.81
2022-11-22T14:02:47.981Z,8.60
2022-11-22T14:05:41.293Z,8.31
2022-11-22T14:08:26.422Z,8.87
2022-11-22T14:10:52.965Z,8.89
2022-11-22T14:13:26.162Z,8.84
2022-11-22T14:15:55.780Z,8.68
2022-11-22T14:18:45.958Z,8.85
2022-11-22T14:21:24.658Z,8.45
2022-11-22T14:24:15.920Z,8.76
2022-11-22T14:27:23.716Z,8.70
2022-11-22T14:30:02.589Z,8.79
2022-11-22T14:33:24.793Z,8.78
2022-11-22T14:36:06.841Z,8.36
2022-11-22T14:38:38.826Z,8.75
2022-11-22T14:41:39.996Z,8.75
2022-11-22T14:44:34.381Z,8.54
2022-11-22T14:47:12.669Z,8.55
2022-11-22T14:49:55.856Z,8.78
2022-11-22T14:52:30.850Z,8.59
2022-11-22T14:55:00.941Z,8.69
2022-11-22T14:57:38.911Z,8.18
2022-11-22T15:00:22.536Z,8.63
2022-11-22T15:03:00.530Z,8.73
2022-11-22T15:09:17.126Z,8.68
2022-11-22T15:09:17.455Z,8.63
2022-11-22T15:11:53.186Z,8.65
2022-11-22T15:14:45.478Z,8.65
2022-11-22T15:59:23.495Z,8.75
2022-11-22T16:02:04.096Z,8.22
2022-11-22T16:06:06.153Z,8.73
2022-11-22T16:08:00.319Z,8.76
2022-11-22T16:11:01.646Z,8.76
2022-11-22T16:14:05.345Z,8.65
2022-11-22T16:16:41.308Z,8.78
2022-11-22T16:19:36.817Z,8.67
2022-11-22T16:22:23.823Z,8.58
2022-11-22T16:24:50.422Z,8.83
2022-11-22T16:27:18.330Z,8.27
2022-11-22T16:29:57.325Z,7.47
2022-11-22T16:32:53.857Z,9.36
2022-11-22T16:35:33.774Z,9.47
2022-11-22T16:38:00.801Z,9.60
2022-11-22T16:40:31.315Z,9.41
2022-11-22T16:43:31.938Z,9.54
2022-11-22T16:46:08.300Z,9.03
2022-11-22T16:48:52.069Z,9.71
2022-11-22T16:51:38.316Z,10.07
2022-11-22T16:54:29.774Z,9.96
2022-11-22T16:57:01.735Z,10.55
2022-11-22T16:59:37.335Z,10.48
2022-11-22T17:02:42.789Z,10.26
2022-11-22T17:05:28.081Z,8.80
2022-11-22T17:11:31.843Z,10.31
2022-11-22T17:14:03.904Z,9.87
2022-11-22T17:16:33.422Z,10.24
2022-11-22T17:19:01.899Z,10.33
2022-11-22T17:21:37.794Z,9.95
2022-11-22T17:24:27.572Z,9.78
2022-11-22T17:27:23.264Z,9.83
2022-11-22T17:29:51.342Z,9.88
2022-11-22T17:32:25.765Z,9.62
2022-11-22T17:35:04.456Z,9.92
2022-11-22T17:37:34.462Z,9.82
2022-11-22T17:40:05.855Z,10.15
2022-11-22T17:42:38.073Z,10.04
2022-11-22T17:45:10.846Z,9.99
2022-11-22T17:47:39.259Z,9.66
2022-11-22T17:50:06.593Z,10.12
2022-11-22T17:52:38.819Z,10.34
2022-11-22T17:55:11.721Z,10.30
2022-11-22T17:57:41.661Z,10.33
2022-11-22T18:00:09.937Z,10.05
2022-11-22T18:02:37.173Z,9.91
2022-11-22T18:05:08.456Z,10.14
2022-11-22T18:07:36.339Z,9.51
2022-11-22T18:10:10.567Z,9.81
2022-11-22T18:12:42.292Z,9.76
2022-11-22T18:15:12.892Z,9.73
2022-11-22T18:17:42.965Z,9.95
2022-11-22T18:20:13.212Z,9.90
2022-11-22T18:22:40.754Z,9.83
2022-11-22T18:25:09.926Z,8.35
2022-11-22T18:28:13.462Z,9.87
2022-11-22T18:30:52.706Z,10.20
2022-11-22T18:33:34.646Z,10.26
2022-11-22T18:37:00.283Z,10.19
2022-11-22T18:42:32.380Z,9.98
2022-11-22T18:45:22.298Z,10.07
2022-11-22T18:47:58.726Z,9.84
2022-11-22T18:50:38.205Z,10.01
2022-11-22T18:53:12.008Z,9.99
2022-11-22T18:55:46.348Z,9.59
2022-11-22T19:01:30.583Z,9.88
2022-11-22T19:07:08.657Z,8.99
2022-11-22T19:20:54.564Z,9.44
2022-11-22T19:23:44.889Z,9.92
2022-11-22T19:30:02.374Z,9.39
2022-11-22T19:32:51.359Z,9.27
2022-11-22T19:35:28.943Z,9.36
2022-11-22T19:37:55.732Z,9.05
2022-11-22T19:40:56.819Z,9.02
2022-11-22T19:43:29.246Z,9.35
2022-11-22T19:46:07.021Z,9.22
2022-11-22T19:48:47.011Z,9.15
2022-11-22T19:54:45.596Z,9.80
2022-11-22T19:57:51.464Z,9.45
2022-11-22T20:00:25.289Z,9.26
2022-11-22T20:03:32.983Z,9.66
2022-11-22T20:06:10.356Z,9.15
2022-11-22T20:08:47.515Z,9.42
2022-11-22T20:11:23.983Z,9.37
2022-11-22T20:14:15.167Z,9.57
2022-11-22T20:16:55.858Z,9.64
2022-11-22T20:19:44.815Z,9.52
2022-11-22T20:22:19.771Z,9.67
2022-11-22T20:24:53.934Z,8.01
2022-11-22T20:28:00.153Z,9.27
2022-11-22T20:30:54.724Z,9.38
2022-11-22T20:33:24.538Z,9.20
2022-11-22T20:35:56.858Z,9.44
2022-11-22T20:38:24.434Z,9.03
2022-11-22T20:41:11.452Z,9.14
2022-11-22T20:43:44.205Z,9.37
2022-11-22T20:46:20.645Z,9.24
2022-11-22T20:49:34.063Z,9.34
2022-11-22T20:52:42.086Z,9.26
2022-11-22T20:55:24.003Z,8.49
2022-11-22T20:58:03.283Z,9.17
2022-11-22T21:00:45.918Z,7.85
2022-11-22T21:03:14.495Z,9.09
2022-11-22T21:05:45.989Z,8.77
2022-11-22T21:08:25.492Z,9.03
2022-11-22T21:11:12.751Z,8.87
2022-11-22T21:13:43.633Z,9.12
2022-11-22T21:16:24.408Z,9.12
2022-11-22T21:18:55.134Z,8.90
2022-11-22T21:21:47.560Z,8.31
2022-11-22T21:24:39.595Z,9.18
2022-11-22T21:27:25.641Z,8.93
2022-11-22T21:29:56.707Z,9.26
2022-11-22T21:32:42.045Z,9.28
2022-11-22T21:35:24.754Z,9.35
2022-11-22T21:38:11.147Z,9.91
2022-11-22T21:41:32.267Z,9.83
2022-11-22T21:44:05.137Z,9.43
2022-11-22T21:46:49.506Z,9.61
2022-11-22T21:49:48.545Z,9.65
2022-11-22T21:55:53.934Z,9.02
2022-11-22T21:58:46.321Z,9.32
2022-11-22T22:01:49.957Z,8.29
2022-11-22T22:07:44.526Z,8.72
2022-11-22T22:10:07.806Z,9.36
2022-11-22T22:12:52.917Z,8.71
2022-11-22T22:15:23.386Z,9.31
2022-11-22T22:18:29.403Z,9.24
2022-11-22T22:21:18.589Z,9.47
2022-11-22T22:23:52.778Z,9.04
2022-11-22T22:26:26.302Z,9.03
2022-11-22T22:29:23.549Z,9.36
2022-11-22T22:31:53.241Z,9.36
2022-11-22T22:34:41.147Z,9.47
2022-11-22T22:37:19.309Z,9.33
2022-11-22T22:40:00.087Z,9.10
2022-11-22T22:48:14.465Z,9.34
2022-11-22T22:50:53.269Z,9.23
2022-11-22T22:53:33.330Z,8.78
2022-11-22T22:56:44.848Z,8.73
2022-11-22T23:02:29.125Z,9.20
2022-11-22T23:05:32.227Z,9.16
2022-11-22T23:08:33.572Z,8.94
2022-11-22T23:11:31.900Z,9.08
2022-11-22T23:14:06.119Z,9.04
2022-11-22T23:19:31.163Z,9.17
2022-11-22T23:22:07.713Z,9.23
2022-11-22T23:24:40.058Z,8.08
2022-11-22T23:27:16.190Z,9.27
2022-11-22T23:30:08.239Z,9.06
2022-11-22T23:32:41.426Z,7.82
2022-11-22T23:35:17.939Z,9.30
2022-11-22T23:37:47.952Z,9.36
2022-11-22T23:40:18.143Z,9.29
2022-11-22T23:42:45.684Z,8.89
2022-11-22T23:45:29.120Z,9.30
2022-11-22T23:47:57.067Z,9.10
2022-11-22T23:50:24.540Z,9.35
2022-11-22T23:52:56.887Z,8.88
2022-11-22T23:55:23.684Z,9.40
2022-11-22T23:57:52.506Z,9.35
